Nearby METAR Reports

 

EGAA - Belfast International Airport
Distance from station: W 19.6km
Updated: 20/05/2018 23:50
Light rain, Mostly cloudy
Light rain, Mostly cloudy
 Wind from S
Wind: S 13 km/h
Temperature: 12°C
Dew Point: 11°C
Humidity: 94%
Barometer: 1017 hPa
Summary: Light rain
Clouds: Mostly cloudy
Visibility: 5 km
Cloud details: Partly cloudy 183 m
Mostly cloudy 274 m
2018/05/20 22:50 EGAA 202250Z 17007KT 130V200 5000 -RA SCT006 BKN009 12/11 Q1017 RERA
EGAC - George Best Belfast City Airport
Distance from station: SE 6.4km
Updated: 20/05/2018 23:50
Light rain, Overcast
Light rain, Overcast
 Wind from S
Wind: S 7 km/h
Temperature: 12°C
Dew Point: 11°C
Humidity: 94%
Barometer: 1017 hPa
Summary: Light rain
Clouds: Overcast
Visibility: 5 km
Cloud details: Overcast 671 m
2018/05/20 22:50 EGAC 202250Z AUTO 17004KT 5000 -RA OVC022/// 12/11 Q1017 RERA